Time;durP1;ratioP1;P1;durP2;ratioP2;P2;SDS_P1;SDS_P2;PMS_P1;PMS_P2;Temp;Humidity;BMP_temperature;BMP_pressure;BME280_temperature;BME280_humidity;BME280_pressure;Samples;Min_cycle;Max_cycle;Signal;HPM_P1;HPM_P2
2023/04/03 00:01:25;;;;;;;4.87;1.50;;;3.20;99.90;;;-141.84;62.99;19210.28;5070566;28;20435;-65
2023/04/03 00:03:53;;;;;;;2.93;1.30;;;3.20;99.90;;;-141.84;62.51;19204.19;5070521;28;20248;-65
2023/04/03 00:06:22;;;;;;;5.53;1.30;;;3.20;99.90;;;-141.84;63.08;19177.75;5070240;28;20282;-64
2023/04/03 00:08:51;;;;;;;4.30;1.40;;;3.20;99.90;;;-141.84;62.37;19185.88;5070257;28;20232;-65
2023/04/03 00:11:21;;;;;;;3.50;1.40;;;3.20;99.90;;;-141.84;62.32;19210.28;5070305;28;20204;-64
2023/04/03 00:13:50;;;;;;;5.10;1.43;;;3.30;99.90;;;-141.84;62.39;19206.22;5070684;28;20204;-63
2023/04/03 00:16:18;;;;;;;3.77;1.40;;;3.30;99.90;;;-141.84;61.83;19220.44;5070216;28;20226;-67
2023/04/03 00:18:46;;;;;;;4.00;1.40;;;3.30;99.90;;;-141.84;62.02;19185.88;5067878;28;20283;-64
2023/04/03 00:21:15;;;;;;;2.57;1.20;;;3.20;99.90;;;-141.84;61.50;19181.81;5053341;28;20235;-65
2023/04/03 00:23:44;;;;;;;1.90;1.20;;;3.20;99.90;;;-141.84;61.68;19220.44;5069293;28;20249;-66
2023/04/03 00:26:12;;;;;;;3.97;1.17;;;3.20;99.90;;;-141.84;61.39;19242.78;5058743;28;20664;-65
2023/04/03 00:28:42;;;;;;;4.60;1.40;;;3.20;99.90;;;-141.84;61.99;19226.53;5062510;28;20227;-64
2023/04/03 00:31:10;;;;;;;3.80;1.50;;;3.20;99.90;;;-141.84;61.88;19226.53;5062847;28;20225;-65
2023/04/03 00:33:41;;;;;;;2.93;1.30;;;3.10;99.90;;;-141.84;63.09;19159.47;5069940;28;20216;-65
2023/04/03 00:36:11;;;;;;;2.63;1.60;;;2.90;99.90;;;-141.84;63.44;19192.00;5064355;28;20732;-64
2023/04/03 00:38:39;;;;;;;4.33;1.50;;;2.70;99.90;;;-141.84;63.80;19151.34;5056308;28;20311;-64
2023/04/03 00:41:08;;;;;;;2.73;1.37;;;2.70;99.90;;;-141.84;63.88;19169.63;5050157;28;20669;-65
2023/04/03 00:43:36;;;;;;;3.63;1.30;;;2.70;99.90;;;-141.84;64.22;19161.50;5050451;28;20195;-63
2023/04/03 00:46:06;;;;;;;3.13;1.63;;;2.60;99.90;;;-141.84;64.16;19153.38;5051178;28;20225;-65
2023/04/03 00:48:40;;;;;;;2.23;1.10;;;2.50;99.90;;;-141.84;63.35;19183.84;5060955;28;20651;-65
2023/04/03 00:51:13;;;;;;;3.70;1.80;;;2.60;99.90;;;-141.84;63.57;19149.31;5049505;28;20715;-64
2023/04/03 00:53:48;;;;;;;2.73;1.30;;;2.70;99.90;;;-141.84;64.07;19192.00;5051851;28;20221;-65
2023/04/03 00:56:22;;;;;;;5.50;1.47;;;2.60;99.90;;;-141.84;64.23;19173.69;5054020;28;20196;-67
2023/04/03 00:58:58;;;;;;;2.60;1.40;;;2.50;99.90;;;-141.84;65.02;19133.06;5055519;28;20196;-66
2023/04/03 01:01:30;;;;;;;1.93;1.17;;;2.40;99.90;;;-141.84;65.36;19110.72;5059866;28;20945;-64
2023/04/03 01:04:00;;;;;;;2.97;1.30;;;2.20;99.90;;;-141.84;65.84;19092.41;5065290;28;20227;-64
2023/04/03 01:06:35;;;;;;;3.30;1.50;;;2.10;99.90;;;-141.84;65.53;19143.22;5058669;28;20213;-64
2023/04/03 01:09:05;;;;;;;5.47;1.70;;;2.20;99.90;;;-141.84;64.62;19167.59;5073727;28;20243;-65
2023/04/03 01:11:33;;;;;;;2.90;1.20;;;2.20;99.90;;;-141.84;65.79;19122.91;5074054;28;20220;-64
2023/04/03 01:14:02;;;;;;;4.17;1.50;;;2.10;99.90;;;-141.84;65.12;19112.75;5074373;28;20223;-64
2023/04/03 01:16:32;;;;;;;4.10;1.40;;;2.10;99.90;;;-141.84;65.18;19118.84;5071743;28;20220;-64
2023/04/03 01:19:01;;;;;;;4.03;1.50;;;2.10;99.90;;;-141.84;65.98;19090.38;5057375;28;20224;-63
2023/04/03 01:22:03;;;;;;;3.90;1.37;;;2.00;99.90;;;-141.84;65.65;19104.59;5060031;28;20253;-63
2023/04/03 01:24:38;;;;;;;2.00;1.20;;;2.00;99.90;;;-141.84;65.44;19118.84;5057870;28;20239;-65
2023/04/03 01:27:10;;;;;;;3.73;1.30;;;2.00;99.90;;;-141.84;66.24;19129.00;5065304;28;20314;-64
2023/04/03 01:29:40;;;;;;;2.07;1.33;;;1.90;99.90;;;-141.84;66.73;19108.69;5061344;28;20282;-64
2023/04/03 01:32:09;;;;;;;2.50;1.47;;;1.80;99.90;;;-141.84;66.92;19118.84;5064348;28;20200;-64
2023/04/03 01:34:38;;;;;;;2.40;1.40;;;1.80;99.90;;;-141.84;65.60;19135.09;5060079;28;20207;-64
2023/04/03 01:37:06;;;;;;;3.80;1.60;;;1.90;99.90;;;-141.84;66.23;19112.75;5058350;28;20325;-65
2023/04/03 01:39:34;;;;;;;4.93;1.20;;;1.80;99.90;;;-141.84;66.47;19118.84;5057088;28;20633;-64
2023/04/03 01:42:03;;;;;;;3.87;1.47;;;1.80;99.90;;;-141.84;66.02;19141.19;5073405;28;20234;-64
2023/04/03 01:44:31;;;;;;;3.50;1.50;;;1.80;99.90;;;-141.84;65.95;19116.81;5073209;28;20220;-63
2023/04/03 01:46:59;;;;;;;5.23;1.40;;;1.90;99.90;;;-141.84;66.01;19126.97;5073873;28;20200;-64
2023/04/03 01:49:29;;;;;;;5.27;1.50;;;1.90;99.90;;;-141.84;66.58;19106.66;5073229;28;20236;-63
2023/04/03 01:51:57;;;;;;;4.80;1.53;;;1.80;99.90;;;-141.84;67.24;19086.31;5073121;28;20236;-64
2023/04/03 01:54:25;;;;;;;3.83;1.33;;;1.70;99.90;;;-141.84;67.21;19092.41;5068927;28;20224;-64
2023/04/03 01:56:53;;;;;;;3.13;1.50;;;1.70;99.90;;;-141.84;66.92;19088.34;5053210;28;20229;-64
2023/04/03 01:59:21;;;;;;;4.97;1.50;;;1.70;99.90;;;-141.84;66.87;19118.84;5052888;28;20201;-64
2023/04/03 02:01:49;;;;;;;4.73;1.40;;;1.70;99.90;;;-141.84;66.86;19100.53;5053305;28;20672;-65
2023/04/03 02:04:17;;;;;;;4.53;1.70;;;1.80;99.90;;;-141.84;66.88;19090.38;5052458;28;20230;-63
2023/04/03 02:06:47;;;;;;;2.97;1.50;;;1.80;99.90;;;-141.84;67.10;19112.75;5071678;28;20220;-64
2023/04/03 02:09:15;;;;;;;3.37;1.50;;;1.60;99.90;;;-141.84;66.71;19104.59;5072373;28;20233;-64
2023/04/03 02:11:44;;;;;;;3.47;1.40;;;1.70;99.90;;;-141.84;67.20;19139.16;5072794;28;20224;-64
2023/04/03 02:14:12;;;;;;;2.60;1.60;;;1.60;99.90;;;-141.84;67.63;19094.44;5069300;28;20224;-64
2023/04/03 02:16:40;;;;;;;5.90;1.77;;;1.60;99.90;;;-141.84;67.13;19080.22;5061750;28;20197;-64
2023/04/03 02:19:09;;;;;;;2.93;1.33;;;1.60;99.90;;;-141.84;68.27;19074.13;5071637;28;20303;-63
2023/04/03 02:21:37;;;;;;;4.23;1.60;;;1.50;99.90;;;-141.84;68.19;19082.25;5072363;28;20243;-64
2023/04/03 02:24:07;;;;;;;3.73;1.53;;;1.50;99.90;;;-141.84;67.41;19098.50;5072194;28;20232;-64
2023/04/03 02:26:35;;;;;;;3.27;1.20;;;1.50;99.90;;;-141.84;67.97;19098.50;5069956;28;20232;-63
2023/04/03 02:29:03;;;;;;;3.00;1.30;;;1.40;99.90;;;-141.84;68.19;19063.97;5059819;28;20208;-64
2023/04/03 02:31:32;;;;;;;5.00;1.37;;;1.50;99.90;;;-141.84;68.03;19108.69;5057644;28;20227;-64
2023/04/03 02:34:00;;;;;;;2.80;1.33;;;1.50;99.90;;;-141.84;67.73;19084.28;5059405;28;20227;-64
2023/04/03 02:36:28;;;;;;;4.17;1.40;;;1.50;99.90;;;-141.84;68.05;19074.13;5061670;28;20229;-63
2023/04/03 02:39:00;;;;;;;5.67;1.90;;;1.50;99.90;;;-141.84;67.19;19080.22;5052682;28;20229;-64
2023/04/03 02:41:34;;;;;;;7.07;1.50;;;1.60;99.90;;;-141.84;66.89;19092.41;5054035;28;20718;-64
2023/04/03 02:44:04;;;;;;;4.17;1.40;;;1.60;99.90;;;-141.84;68.07;19072.09;5056036;28;20199;-62
2023/04/03 02:46:32;;;;;;;3.03;1.50;;;1.40;99.90;;;-141.84;68.03;19066.00;5056512;28;20225;-64
2023/04/03 02:49:00;;;;;;;4.93;1.53;;;1.40;99.90;;;-141.84;68.87;19051.78;5051745;28;20240;-65
2023/04/03 02:51:28;;;;;;;2.30;1.50;;;1.30;99.90;;;-141.84;68.59;19072.09;5070861;28;20229;-64
2023/04/03 02:53:56;;;;;;;2.67;1.57;;;1.30;99.90;;;-141.84;69.50;19047.72;5071524;28;20239;-63
2023/04/03 02:56:26;;;;;;;2.50;1.50;;;1.20;99.90;;;-141.84;69.34;19066.00;5051947;28;20229;-64
2023/04/03 02:58:56;;;;;;;5.83;2.13;;;1.20;99.90;;;-141.84;69.60;19029.44;5052643;28;20217;-64
2023/04/03 03:01:24;;;;;;;5.63;2.03;;;1.10;99.90;;;-141.84;69.82;19029.44;5051670;28;20297;-64
2023/04/03 03:03:52;;;;;;;4.23;1.60;;;1.00;99.90;;;-141.84;70.67;19027.41;5051765;28;20314;-64
2023/04/03 03:06:20;;;;;;;2.10;1.40;;;0.90;99.90;;;-141.84;70.79;19035.53;5051474;28;20240;-65
2023/04/03 03:08:48;;;;;;;3.00;1.30;;;0.90;99.90;;;-141.84;70.27;19066.00;5063768;28;20735;-64
2023/04/03 03:11:16;;;;;;;5.57;1.53;;;0.90;99.90;;;-141.84;70.23;19055.84;5071484;28;20230;-64
2023/04/03 03:13:45;;;;;;;4.57;1.60;;;0.90;99.90;;;-141.84;70.09;19047.72;5072193;28;20209;-64
2023/04/03 03:16:14;;;;;;;6.40;1.90;;;0.90;99.90;;;-141.84;70.94;19055.84;5059914;28;20313;-64
2023/04/03 03:18:42;;;;;;;1.97;1.37;;;0.80;99.90;;;-141.84;71.21;19031.47;5051505;28;20289;-64
2023/04/03 03:21:11;;;;;;;5.20;1.97;;;0.80;99.90;;;-141.84;70.99;19037.56;5053752;28;20233;-63
2023/04/03 03:23:40;;;;;;;4.63;1.70;;;0.80;99.90;;;-141.84;71.57;19041.63;5074418;28;20234;-64
2023/04/03 03:26:11;;;;;;;3.83;1.60;;;0.70;99.90;;;-141.84;71.58;19029.44;5091301;28;20205;-64
2023/04/03 03:28:41;;;;;;;6.77;1.67;;;;;;;-141.84;70.57;19033.50;5059241;28;20934;-64
2023/04/03 03:31:11;;;;;;;3.83;1.50;;;0.80;99.90;;;-141.84;70.51;19055.84;5062820;28;20696;-65
2023/04/03 03:33:40;;;;;;;4.17;1.63;;;0.70;99.90;;;-141.84;70.71;19031.47;5054177;28;20272;-66
2023/04/03 03:36:08;;;;;;;1.90;1.40;;;0.70;99.90;;;-141.84;70.94;19043.66;5057537;28;20243;-65
2023/04/03 03:38:37;;;;;;;2.83;1.67;;;0.70;99.90;;;-141.84;71.07;19033.50;5059064;28;20219;-65
2023/04/03 03:41:05;;;;;;;3.10;1.50;;;0.60;99.90;;;-141.84;72.06;19017.25;5061043;28;20193;-63
2023/04/03 03:43:34;;;;;;;3.40;1.60;;;0.60;99.90;;;-141.84;70.97;19037.56;5061595;28;20215;-65
2023/04/03 03:46:02;;;;;;;2.13;1.43;;;0.60;99.90;;;-141.84;70.67;19017.25;5061995;28;20219;-65
2023/04/03 03:48:30;;;;;;;3.50;1.40;;;0.70;99.90;;;-141.84;71.71;19011.13;5056661;28;20221;-65
2023/04/03 03:51:00;;;;;;;3.13;1.50;;;0.50;99.90;;;-141.84;71.64;19015.19;5061837;28;20224;-64
2023/04/03 03:53:28;;;;;;;3.77;1.57;;;0.50;99.90;;;-141.84;71.95;18986.75;5058133;28;20592;-64
2023/04/03 03:55:56;;;;;;;3.80;1.77;;;0.50;99.90;;;-141.84;71.55;19013.16;5058226;28;20643;-65
2023/04/03 03:58:24;;;;;;;2.93;1.37;;;0.50;99.90;;;-141.84;71.15;19000.97;5053407;28;20295;-64
2023/04/03 04:00:53;;;;;;;6.00;1.73;;;0.60;99.90;;;-141.84;71.20;19029.44;5059310;28;20600;-63
2023/04/03 04:03:21;;;;;;;4.90;1.53;;;0.60;99.90;;;-141.84;71.73;19017.25;5056005;28;20620;-64
2023/04/03 04:05:50;;;;;;;3.40;1.70;;;0.50;99.90;;;-141.84;71.38;19029.44;5050704;28;20310;-63
2023/04/03 04:08:19;;;;;;;3.70;1.50;;;0.60;99.90;;;-141.84;71.94;19037.56;5058549;28;20214;-65
2023/04/03 04:10:47;;;;;;;5.27;1.80;;;0.50;99.90;;;-141.84;72.45;19025.38;5071049;28;20231;-64
2023/04/03 04:13:16;;;;;;;3.43;1.90;;;0.40;99.90;;;-141.84;72.55;18990.81;5070094;28;20716;-65
2023/04/03 04:15:44;;;;;;;3.03;1.40;;;0.40;99.90;;;-141.84;72.06;18996.91;5070357;28;20229;-64
2023/04/03 04:18:12;;;;;;;3.80;1.53;;;0.40;99.90;;;-141.84;71.21;18982.69;5053770;28;20236;-65
2023/04/03 04:20:40;;;;;;;3.87;1.43;;;0.50;99.90;;;-141.84;72.52;18998.94;5071211;28;20225;-65
2023/04/03 04:23:09;;;;;;;3.93;1.90;;;0.30;99.90;;;-141.84;73.56;18972.53;5069594;28;20706;-64
2023/04/03 04:25:38;;;;;;;2.53;1.40;;;0.20;99.90;;;-141.84;73.55;18974.56;5062296;28;20208;-64
2023/04/03 04:28:07;;;;;;;4.67;1.90;;;0.20;99.90;;;-141.84;73.66;18988.78;5057719;28;20229;-64
2023/04/03 04:30:35;;;;;;;5.53;1.70;;;0.10;99.90;;;-141.84;71.97;19005.03;5057257;28;20223;-63
2023/04/03 04:33:03;;;;;;;4.90;2.17;;;0.30;99.90;;;-141.84;71.91;19013.16;5055593;28;20225;-65
2023/04/03 04:35:31;;;;;;;4.40;1.90;;;0.30;99.90;;;-141.84;72.39;18972.53;5057815;28;20224;-64
2023/04/03 04:38:00;;;;;;;4.87;1.30;;;0.30;99.90;;;-141.84;72.80;19015.19;5053151;28;20211;-64
2023/04/03 04:40:29;;;;;;;4.80;1.90;;;0.20;99.90;;;-141.84;73.36;18978.63;5059337;28;20246;-64
2023/04/03 04:42:58;;;;;;;3.60;1.33;;;0.20;99.90;;;-141.84;73.08;19007.06;5059655;28;20225;-64
2023/04/03 04:45:26;;;;;;;5.33;1.67;;;0.20;99.90;;;-141.84;72.34;19029.44;5069775;28;20222;-65
2023/04/03 04:47:56;;;;;;;4.20;1.70;;;0.20;99.90;;;-141.84;72.53;18980.66;5070094;28;20226;-64
2023/04/03 04:50:25;;;;;;;5.37;1.67;;;0.20;99.90;;;-141.84;71.67;19017.25;5069955;28;20230;-64
2023/04/03 04:52:53;;;;;;;4.07;1.60;;;0.30;99.90;;;-141.84;71.10;19017.25;5070194;28;20238;-64
2023/04/03 04:55:21;;;;;;;3.93;1.73;;;0.40;99.90;;;-141.84;72.03;18980.66;5069528;28;20561;-64
2023/04/03 04:57:49;;;;;;;5.80;1.60;;;0.30;99.90;;;-141.84;72.38;18974.56;5062364;28;20230;-64
2023/04/03 05:00:20;;;;;;;4.03;1.70;;;0.30;99.90;;;-141.84;72.76;18990.81;5049625;28;20238;-64
2023/04/03 05:02:48;;;;;;;4.13;1.83;;;0.20;99.90;;;-141.84;73.29;19013.16;5049783;28;20231;-65
2023/04/03 05:05:17;;;;;;;4.13;1.60;;;0.20;99.90;;;-141.84;71.48;19025.38;5049620;28;20203;-63
2023/04/03 05:07:45;;;;;;;4.57;1.50;;;0.30;99.90;;;-141.84;71.63;18994.88;5053205;28;20231;-64
2023/04/03 05:10:13;;;;;;;3.70;1.60;;;0.30;99.90;;;-141.84;71.09;19005.03;5069296;28;20224;-64
2023/04/03 05:12:41;;;;;;;4.03;1.77;;;0.30;99.90;;;-141.84;71.34;19023.34;5069601;28;20257;-64
2023/04/03 05:15:11;;;;;;;4.93;1.43;;;0.30;99.90;;;-141.84;71.51;18992.84;5069643;28;20231;-66
2023/04/03 05:17:40;;;;;;;7.60;1.57;;;0.30;99.90;;;-141.84;71.36;19033.50;5062351;28;20254;-65
2023/04/03 05:20:10;;;;;;;2.97;1.47;;;0.30;99.90;;;-141.84;71.29;18976.59;5058379;28;20233;-63
2023/04/03 05:22:38;;;;;;;3.47;1.37;;;0.30;99.90;;;-141.84;71.62;18990.81;5056156;28;20200;-64
2023/04/03 05:25:08;;;;;;;3.73;1.50;;;0.30;99.90;;;-141.84;70.06;19011.13;5055972;28;20618;-64
2023/04/03 05:27:36;;;;;;;2.40;1.63;;;0.40;99.90;;;-141.84;69.34;18994.88;5066790;28;20217;-65
2023/04/03 05:30:05;;;;;;;3.47;1.83;;;0.60;99.90;;;-141.84;69.62;18974.56;5052556;28;20666;-64
2023/04/03 05:32:34;;;;;;;2.30;1.30;;;0.60;99.90;;;-141.84;69.63;19031.47;5051414;28;20671;-64
2023/04/03 05:35:04;;;;;;;2.30;1.47;;;0.60;99.90;;;-141.84;69.23;18994.88;5070064;28;20210;-65
2023/04/03 05:37:32;;;;;;;2.97;1.37;;;0.70;99.90;;;-141.84;69.20;19029.44;5069732;28;20220;-65
2023/04/03 05:40:01;;;;;;;3.40;1.40;;;0.80;99.90;;;-141.84;69.26;19057.88;5069205;28;20231;-64
2023/04/03 05:42:29;;;;;;;5.27;1.77;;;0.90;99.90;;;-141.84;67.90;19039.59;5069240;28;20229;-65
2023/04/03 05:44:58;;;;;;;2.93;1.30;;;1.10;99.90;;;-141.84;66.70;19070.06;5066635;28;20484;-65
2023/04/03 05:47:26;;;;;;;4.43;1.77;;;1.20;99.90;;;-141.84;67.08;19049.75;5053730;28;20233;-65
2023/04/03 05:49:54;;;;;;;2.60;1.30;;;1.20;99.90;;;-141.84;66.89;19049.75;5068719;28;20464;-65
2023/04/03 05:52:29;;;;;;;4.80;1.73;;;1.30;99.90;;;-141.84;66.92;19043.66;5068605;28;20225;-63
2023/04/03 05:54:58;;;;;;;5.83;1.60;;;1.30;99.90;;;-141.84;66.52;19047.72;5071755;28;20232;-63
2023/04/03 05:57:26;;;;;;;3.63;2.00;;;1.30;99.90;;;-141.84;67.08;19049.75;5063175;28;20239;-64
2023/04/03 05:59:55;;;;;;;6.17;1.73;;;1.40;99.90;;;-141.84;65.44;19072.09;5061183;28;20270;-65
2023/04/03 06:02:25;;;;;;;3.57;1.30;;;1.60;99.90;;;-141.84;65.80;19086.31;5059410;28;20233;-64
2023/04/03 06:04:54;;;;;;;4.57;1.40;;;1.60;99.90;;;-141.84;65.95;19094.44;5055293;28;20217;-64
2023/04/03 06:07:28;;;;;;;3.93;1.60;;;1.60;99.90;;;-141.84;65.60;19074.13;5059490;28;20227;-64
2023/04/03 06:09:57;;;;;;;4.17;1.53;;;1.50;99.90;;;-141.84;64.78;19102.56;5067364;28;20602;-64
2023/04/03 06:12:25;;;;;;;4.33;1.73;;;1.60;99.90;;;-141.84;65.10;19078.19;5067543;28;20223;-65
2023/04/03 06:14:53;;;;;;;3.17;1.40;;;1.70;99.90;;;-141.84;64.32;19094.44;5078558;28;20239;-65
2023/04/03 06:17:22;;;;;;;2.80;1.27;;;1.70;99.90;;;-141.84;65.38;19088.34;5061112;28;20198;-64
2023/04/03 06:19:50;;;;;;;2.70;1.03;;;1.70;99.90;;;-141.84;64.57;19076.16;5054814;28;20197;-64
2023/04/03 06:22:19;;;;;;;2.30;1.20;;;1.70;99.90;;;-141.84;65.11;19116.81;5057554;28;20223;-64
2023/04/03 06:24:49;;;;;;;2.20;1.40;;;1.80;99.90;;;-141.84;64.50;19080.22;5056243;28;20719;-65
2023/04/03 06:27:17;;;;;;;2.60;1.40;;;1.80;99.90;;;-141.84;64.45;19108.69;5058106;28;20225;-64
2023/04/03 06:29:45;;;;;;;4.70;1.27;;;1.80;99.90;;;-141.84;64.66;19074.13;5055064;28;20232;-64
2023/04/03 06:32:13;;;;;;;2.10;1.43;;;1.70;99.90;;;-141.84;64.55;19072.09;5057644;28;20225;-65
2023/04/03 06:34:42;;;;;;;5.73;1.67;;;1.70;99.90;;;-141.84;64.58;19102.56;5057098;28;20665;-64
2023/04/03 06:37:16;;;;;;;2.87;1.27;;;1.80;99.90;;;-141.84;64.12;19094.44;5059279;28;20695;-64
2023/04/03 06:39:45;;;;;;;5.10;1.10;;;1.90;99.90;;;-141.84;63.98;19114.78;5060163;28;20703;-64
2023/04/03 06:42:14;;;;;;;2.87;1.17;;;2.00;99.90;;;-141.84;64.68;19126.97;5061800;28;20228;-64
2023/04/03 06:44:42;;;;;;;5.67;1.37;;;1.90;99.90;;;-141.84;63.75;19126.97;5065201;28;20266;-65
2023/04/03 06:47:13;;;;;;;2.60;1.23;;;1.90;99.90;;;-141.84;64.41;19088.34;5052342;28;20212;-65
2023/04/03 06:49:42;;;;;;;2.60;1.20;;;1.90;99.90;;;-141.84;63.58;19114.78;5052430;28;20675;-66
2023/04/03 06:52:11;;;;;;;4.90;1.60;;;2.00;99.90;;;-141.84;63.50;19112.75;5065194;28;20230;-64
2023/04/03 06:54:41;;;;;;;4.17;1.40;;;2.00;99.90;;;-141.84;62.92;19098.50;5071959;28;20229;-65
2023/04/03 06:57:09;;;;;;;2.73;1.30;;;2.20;99.90;;;-141.84;62.53;19145.25;5068452;28;20237;-65
2023/04/03 06:59:40;;;;;;;2.10;1.30;;;2.20;99.90;;;-141.84;62.26;19131.03;5051188;28;20644;-64
2023/04/03 07:02:10;;;;;;;3.03;1.30;;;2.20;99.90;;;-141.84;62.23;19122.91;5070299;28;20211;-65
2023/04/03 07:04:39;;;;;;;3.10;1.10;;;2.30;99.90;;;-141.84;61.70;19139.16;5072128;28;20200;-63
2023/04/03 07:07:07;;;;;;;1.97;1.00;;;2.40;99.90;;;-141.84;60.73;19153.38;5071824;28;20255;-64
2023/04/03 07:09:35;;;;;;;4.93;1.70;;;2.50;99.90;;;-141.84;60.25;19147.28;5075330;28;20223;-65
2023/04/03 07:12:04;;;;;;;2.57;1.23;;;2.60;99.90;;;-141.84;59.39;19202.16;5092006;28;20228;-66
2023/04/03 07:14:32;;;;;;;2.60;1.30;;;2.70;99.90;;;-141.84;58.87;19204.19;5091749;28;20224;-64
2023/04/03 07:17:01;;;;;;;3.43;1.27;;;2.80;99.90;;;-141.84;58.28;19185.88;5079434;28;20206;-65
2023/04/03 07:19:31;;;;;;;2.87;1.07;;;3.10;99.90;;;-141.84;57.42;19200.13;5052235;28;20225;-65
2023/04/03 07:21:59;;;;;;;3.37;1.10;;;3.20;99.90;;;-141.84;57.50;19212.31;5059959;28;20219;-65
2023/04/03 07:24:27;;;;;;;3.17;0.90;;;3.10;99.90;;;-141.84;57.92;19202.16;5071020;28;20604;-65
2023/04/03 07:26:55;;;;;;;2.70;1.10;;;3.10;99.90;;;-141.84;58.04;19206.22;5068286;28;20594;-65
2023/04/03 07:29:24;;;;;;;2.87;1.00;;;3.10;99.90;;;-141.84;57.29;19192.00;5061266;28;20225;-65
2023/04/03 07:31:52;;;;;;;2.87;1.20;;;3.10;99.90;;;-141.84;56.97;19187.91;5060165;28;20225;-64
2023/04/03 07:34:22;;;;;;;3.23;1.00;;;3.10;99.90;;;-141.84;57.58;19175.72;5067888;28;20239;-65
2023/04/03 07:36:50;;;;;;;2.77;1.37;;;3.10;99.90;;;-141.84;57.05;19155.41;5070578;28;20764;-64
2023/04/03 07:39:18;;;;;;;1.83;1.10;;;3.10;99.90;;;-141.84;56.91;19210.28;5059449;28;20235;-65
2023/04/03 07:41:47;;;;;;;2.80;1.10;;;3.20;99.90;;;-141.84;56.79;19228.56;5050750;28;20709;-66
2023/04/03 07:44:15;;;;;;;2.03;1.00;;;3.20;99.90;;;-141.84;56.39;19214.34;5050949;28;20210;-65
2023/04/03 07:46:43;;;;;;;2.40;0.97;;;3.30;99.90;;;-141.84;56.29;19230.59;5063595;28;20205;-65
2023/04/03 07:49:11;;;;;;;3.03;1.40;;;3.30;99.90;;;-141.84;56.30;19257.00;5070733;28;20231;-65
2023/04/03 07:51:41;;;;;;;3.47;1.20;;;3.50;99.90;;;-141.84;55.71;19263.09;5070333;28;20238;-65
2023/04/03 07:54:09;;;;;;;4.30;1.30;;;3.80;99.90;;;-141.84;54.70;19293.59;5070547;28;20220;-65
2023/04/03 07:56:37;;;;;;;3.47;1.13;;;3.90;99.90;;;-141.84;55.30;19281.41;5070396;28;20226;-66
2023/04/03 07:59:06;;;;;;;3.10;1.13;;;3.80;99.90;;;-141.84;53.72;19315.94;5063251;28;20195;-64
2023/04/03 08:01:34;;;;;;;3.30;1.13;;;4.10;99.90;;;-141.84;53.55;19297.66;5052164;28;20198;-65
2023/04/03 08:04:02;;;;;;;2.63;0.93;;;4.20;99.90;;;-141.84;53.07;19317.97;5060332;28;20588;-65
2023/04/03 08:06:34;;;;;;;2.30;1.00;;;4.30;99.90;;;-141.84;52.41;19309.84;5085087;28;20314;-65
2023/04/03 08:09:15;;;;;;;3.37;1.00;;;4.40;99.90;;;-141.84;52.51;19291.56;5075354;28;20568;-63
2023/04/03 08:11:44;;;;;;;1.77;1.10;;;4.40;99.90;;;-141.84;52.40;19281.41;5067177;28;20279;-65
2023/04/03 08:14:16;;;;;;;2.77;1.37;;;4.30;99.90;;;-141.84;52.61;19275.31;5051299;28;20222;-64
2023/04/03 08:16:46;;;;;;;2.57;1.07;;;4.10;99.90;;;-141.84;53.71;19279.38;5051643;28;20195;-64
2023/04/03 08:19:17;;;;;;;2.40;1.47;;;3.80;99.90;;;-141.84;54.37;19234.66;5057069;28;20221;-66
2023/04/03 08:21:55;;;;;;;3.20;1.67;;;3.70;99.90;;;-141.84;53.79;19287.50;5061376;28;20232;-64
2023/04/03 08:24:24;;;;;;;5.37;1.40;;;3.90;99.90;;;-141.84;54.14;19297.66;5070880;28;20233;-64
2023/04/03 08:26:52;;;;;;;1.87;1.27;;;4.00;99.90;;;-141.84;53.26;19338.28;5060813;28;20232;-65
2023/04/03 08:29:21;;;;;;;2.27;1.27;;;4.20;99.90;;;-141.84;52.92;19301.72;5055947;28;20225;-64
2023/04/03 08:31:50;;;;;;;3.27;1.23;;;4.30;99.90;;;-141.84;53.01;19338.28;5070622;28;20199;-52
2023/04/03 08:34:19;;;;;;;2.80;1.57;;;4.20;99.90;;;-141.84;53.44;19279.38;5069861;28;20223;-51
2023/04/03 08:36:48;;;;;;;2.97;1.20;;;4.10;99.90;;;-141.84;53.75;19273.28;5069748;28;20246;-50
2023/04/03 08:39:17;;;;;;;2.73;1.40;;;4.00;99.90;;;-141.84;53.85;19261.06;5070051;28;20232;-51
2023/04/03 08:41:47;;;;;;;2.40;1.30;;;3.80;99.90;;;-141.84;53.80;19244.81;5066348;28;20607;-53
2023/04/03 08:44:26;;;;;;;2.77;1.43;;;3.70;99.90;;;-141.84;53.88;19238.72;5060909;28;20422;-48
2023/04/03 08:47:10;;;;;;;4.83;1.23;;;3.60;99.90;;;-141.84;54.01;19254.97;5059661;28;20682;-51
2023/04/03 08:49:47;;;;;;;2.20;1.40;;;3.60;99.90;;;-141.84;54.18;19232.63;5069887;28;20288;-52
2023/04/03 08:52:20;;;;;;;1.90;1.30;;;3.60;99.90;;;-141.84;52.75;19273.28;5062541;28;20233;-49
2023/04/03 08:54:57;;;;;;;2.47;1.10;;;3.70;99.90;;;-141.84;52.66;19267.16;5067903;28;20223;-54
2023/04/03 08:57:34;;;;;;;1.93;1.10;;;3.90;99.90;;;-141.84;51.93;19309.84;5062041;28;20231;-51
2023/04/03 09:00:08;;;;;;;3.80;1.23;;;4.00;99.90;;;-141.84;51.79;19313.91;5055871;28;20238;-53
2023/04/03 09:02:45;;;;;;;2.57;1.40;;;4.20;99.90;;;-141.84;50.57;19346.44;5064461;28;20626;-52
2023/04/03 09:05:18;;;;;;;3.00;1.10;;;4.50;99.90;;;-141.84;49.79;19378.94;5061210;28;20299;-53
2023/04/03 09:07:53;;;;;;;3.80;1.40;;;4.70;99.90;;;-141.84;49.33;19389.09;5070180;28;20579;-52
2023/04/03 09:10:31;;;;;;;2.43;1.20;;;4.80;99.90;;;-141.84;48.97;19397.22;5064518;28;20764;-50
2023/04/03 09:13:08;;;;;;;2.07;1.10;;;5.00;99.90;;;-141.84;47.65;19437.88;5068218;28;20274;-53
2023/04/03 09:15:36;;;;;;;5.10;1.17;;;5.30;99.90;;;-141.84;46.35;19458.19;5049966;28;20223;-50
2023/04/03 09:18:16;;;;;;;1.70;1.00;;;5.30;99.90;;;-141.84;47.24;19427.72;5049386;28;20692;-53
2023/04/03 09:20:55;;;;;;;2.17;1.30;;;5.40;99.90;;;-141.84;46.79;19462.25;5067827;28;20784;-53
2023/04/03 09:23:33;;;;;;;2.97;1.20;;;5.60;99.90;;;-141.84;47.53;19443.97;5056654;28;20243;-52
2023/04/03 09:26:08;;;;;;;1.50;1.20;;;5.50;99.90;;;-141.84;47.92;19413.47;5074468;28;20216;-53
2023/04/03 09:28:41;;;;;;;3.60;1.17;;;5.40;99.90;;;-141.84;48.78;19336.25;5074233;28;20211;-55
2023/04/03 09:31:25;;;;;;;3.20;1.10;;;5.10;99.90;;;-141.84;48.65;19362.69;5073413;28;20222;-52
2023/04/03 09:34:01;;;;;;;2.20;1.00;;;4.80;99.90;;;-141.84;49.42;19350.50;5066863;28;20232;-53
2023/04/03 09:36:44;;;;;;;2.27;1.00;;;4.60;99.90;;;-141.84;47.76;19352.53;5063777;28;20236;-50
2023/04/03 09:39:16;;;;;;;3.43;1.20;;;4.60;99.90;;;-141.84;47.44;19372.84;5055295;28;20231;-53
2023/04/03 09:41:59;;;;;;;2.03;1.20;;;4.70;99.90;;;-141.84;46.83;19417.56;5061687;28;20229;-53
2023/04/03 09:44:31;;;;;;;4.13;1.20;;;4.90;99.90;;;-141.84;45.91;19468.34;5057662;28;20224;-55
2023/04/03 09:47:18;;;;;;;2.70;1.37;;;5.30;99.90;;;-141.84;45.71;19492.75;5064825;28;20199;-54
2023/04/03 09:49:46;;;;;;;2.37;1.47;;;5.70;99.90;;;-141.84;44.83;19535.41;5067937;28;20226;-51
2023/04/03 09:52:24;;;;;;;3.03;1.17;;;6.00;99.90;;;-141.84;44.82;19454.13;5065912;28;20217;-52
2023/04/03 09:54:52;;;;;;;3.73;1.20;;;6.00;99.90;;;-141.84;46.29;19456.16;5073083;28;20238;-53
2023/04/03 09:57:20;;;;;;;3.93;1.23;;;5.70;99.90;;;-141.84;46.26;19427.72;5073151;28;20243;-54
2023/04/03 10:00:01;;;;;;;2.60;1.37;;;5.60;99.90;;;-141.84;45.92;19460.22;5073281;28;20646;-53
2023/04/03 10:02:39;;;;;;;3.47;1.27;;;5.60;99.90;;;-141.84;46.33;19527.28;5073178;28;20231;-51
2023/04/03 10:05:33;;;;;;;3.87;1.23;;;5.80;99.90;;;-141.84;44.60;19578.09;5073049;28;20181;-53
2023/04/03 10:08:24;;;;;;;2.73;1.30;;;6.30;99.90;;;-141.84;44.97;19549.63;5073193;28;20231;-53
2023/04/03 10:11:15;;;;;;;3.40;1.80;;;6.40;99.90;;;-141.84;44.38;19535.41;5073303;28;20223;-53
2023/04/03 10:13:59;;;;;;;1.50;1.10;;;6.40;99.90;;;-141.84;43.38;19521.19;5072712;28;20221;-51
2023/04/03 10:16:38;;;;;;;2.27;1.27;;;6.50;99.90;;;-141.84;43.35;19553.72;5073413;28;20212;-55
2023/04/03 10:19:33;;;;;;;2.27;1.37;;;6.40;99.90;;;-141.84;44.14;19496.81;5064105;28;20311;-54
2023/04/03 10:22:14;;;;;;;1.77;1.00;;;6.40;99.90;;;-141.84;43.24;19460.22;5068950;28;20718;-54
2023/04/03 10:24:55;;;;;;;1.37;1.10;;;6.10;99.90;;;-141.84;43.51;19488.69;5055173;28;20582;-53
2023/04/03 10:27:42;;;;;;;2.93;1.27;;;5.80;99.90;;;-141.84;43.23;19500.88;5055490;28;20220;-55